createdAt,value
2022-10-29T00:00:34.924Z,12.90
2022-10-29T00:03:10.031Z,12.90
2022-10-29T00:05:38.903Z,12.90
2022-10-29T00:08:05.982Z,12.80
2022-10-29T00:30:58.181Z,13.00
2022-10-29T00:33:25.055Z,13.00
2022-10-29T00:36:05.275Z,13.00
2022-10-29T00:38:45.687Z,13.00
2022-10-29T00:41:19.471Z,13.00
2022-10-29T00:44:08.335Z,13.00
2022-10-29T00:49:03.331Z,13.00
2022-10-29T00:51:31.970Z,13.00
2022-10-29T00:54:08.128Z,13.00
2022-10-29T00:56:57.998Z,13.00
2022-10-29T01:02:19.325Z,13.00
2022-10-29T01:08:08.521Z,12.90
2022-10-29T01:14:46.667Z,12.90
2022-10-29T01:18:01.098Z,12.90
2022-10-29T01:20:49.880Z,12.90
2022-10-29T01:23:28.895Z,12.80
2022-10-29T01:30:42.970Z,12.80
2022-10-29T01:33:45.799Z,12.70
2022-10-29T01:36:35.017Z,12.70
2022-10-29T01:42:41.732Z,12.70
2022-10-29T01:45:18.742Z,12.70
2022-10-29T01:47:48.825Z,12.70
2022-10-29T01:50:22.924Z,12.70
2022-10-29T01:57:16.327Z,12.70
2022-10-29T02:00:11.498Z,12.70
2022-10-29T02:02:39.059Z,12.70
2022-10-29T02:09:31.744Z,12.70
2022-10-29T02:12:13.853Z,12.70
2022-10-29T02:14:47.340Z,12.80
2022-10-29T02:17:45.805Z,12.70
2022-10-29T02:20:14.517Z,12.70
2022-10-29T02:22:41.600Z,12.70
2022-10-29T02:28:56.026Z,12.60
2022-10-29T02:31:25.154Z,12.50
2022-10-29T02:54:24.756Z,12.10
2022-10-29T02:57:55.164Z,12.00
2022-10-29T03:00:25.073Z,12.00
2022-10-29T03:02:53.233Z,12.00
2022-10-29T03:05:29.636Z,12.10
2022-10-29T03:08:27.520Z,12.10
2022-10-29T03:11:31.479Z,12.20
2022-10-29T03:14:24.200Z,12.20
2022-10-29T03:16:55.159Z,12.20
2022-10-29T03:22:19.152Z,12.20
2022-10-29T03:24:50.643Z,12.20
2022-10-29T03:27:47.598Z,12.20
2022-10-29T03:51:43.904Z,12.10
2022-10-29T03:54:13.590Z,12.10
2022-10-29T03:56:44.026Z,12.10
2022-10-29T03:59:16.058Z,12.10
2022-10-29T04:01:44.605Z,12.10
2022-10-29T04:04:12.122Z,12.10
2022-10-29T04:06:40.770Z,12.10
2022-10-29T04:09:07.444Z,12.20
2022-10-29T04:11:39.897Z,12.20
2022-10-29T04:14:09.119Z,12.20
2022-10-29T04:16:38.617Z,12.20
2022-10-29T04:19:05.149Z,12.20
2022-10-29T04:28:03.050Z,12.10
2022-10-29T04:30:18.500Z,12.00
2022-10-29T04:32:45.006Z,12.00
2022-10-29T04:35:15.093Z,12.00
2022-10-29T04:37:45.182Z,11.90
2022-10-29T04:40:21.847Z,11.80
2022-10-29T04:42:49.137Z,11.80
2022-10-29T04:45:17.361Z,11.80
2022-10-29T04:47:45.364Z,11.80
2022-10-29T04:50:14.175Z,11.80
2022-10-29T04:52:40.640Z,11.90
2022-10-29T04:55:11.137Z,11.90
2022-10-29T04:57:37.640Z,11.90
2022-10-29T05:00:08.320Z,11.90
2022-10-29T05:02:35.240Z,11.90
2022-10-29T05:05:01.736Z,11.90
2022-10-29T05:07:34.275Z,11.80
2022-10-29T05:10:00.948Z,11.80
2022-10-29T05:12:27.441Z,11.80
2022-10-29T05:14:53.881Z,11.70
2022-10-29T05:23:17.648Z,11.60
2022-10-29T05:25:48.349Z,11.50
2022-10-29T05:28:20.488Z,11.50
2022-10-29T05:30:49.175Z,11.50
2022-10-29T05:33:19.135Z,11.40
2022-10-29T05:35:51.490Z,11.40
2022-10-29T05:38:18.029Z,11.50
2022-10-29T05:40:49.184Z,11.50
2022-10-29T05:43:18.170Z,11.50
2022-10-29T05:45:44.945Z,11.50
2022-10-29T05:51:09.246Z,11.50
2022-10-29T05:53:35.929Z,11.50
2022-10-29T05:56:04.500Z,11.40
2022-10-29T05:58:33.217Z,11.40
2022-10-29T06:01:05.054Z,11.30
2022-10-29T06:03:32.674Z,11.30
2022-10-29T06:05:59.216Z,11.30
2022-10-29T06:08:29.467Z,11.30
2022-10-29T06:10:55.860Z,11.20
2022-10-29T06:14:07.349Z,11.20
2022-10-29T06:16:33.863Z,11.10
2022-10-29T06:19:03.407Z,11.10
2022-10-29T06:21:32.600Z,11.10
2022-10-29T06:23:59.250Z,11.10
2022-10-29T06:26:25.727Z,11.00
2022-10-29T06:28:52.231Z,11.00
2022-10-29T06:31:22.238Z,11.00
2022-10-29T06:33:48.795Z,11.00
2022-10-29T06:36:15.242Z,11.00
2022-10-29T06:38:43.273Z,11.10
2022-10-29T06:41:35.311Z,11.10
2022-10-29T06:44:01.876Z,11.10
2022-10-29T06:46:28.368Z,11.20
2022-10-29T06:48:57.001Z,11.20
2022-10-29T06:51:53.244Z,11.30
2022-10-29T06:54:19.915Z,11.30
2022-10-29T06:56:46.389Z,11.30
2022-10-29T07:02:05.994Z,11.30
2022-10-29T07:04:36.392Z,11.40
2022-10-29T07:07:02.895Z,11.40
2022-10-29T07:09:33.955Z,11.40
2022-10-29T07:12:04.319Z,11.50
2022-10-29T07:14:33.287Z,11.50
2022-10-29T07:17:00.875Z,11.60
2022-10-29T07:19:55.780Z,11.70
2022-10-29T07:22:22.245Z,11.80
2022-10-29T07:24:48.746Z,11.80
2022-10-29T07:27:19.769Z,11.90
2022-10-29T07:29:50.091Z,12.00
2022-10-29T07:32:16.592Z,12.10
2022-10-29T07:34:43.039Z,12.20
2022-10-29T07:37:09.779Z,12.30
2022-10-29T07:39:37.938Z,12.40
2022-10-29T07:42:04.854Z,12.50
2022-10-29T07:44:34.701Z,12.60
2022-10-29T07:47:06.726Z,12.70
2022-10-29T07:49:33.495Z,12.90
2022-10-29T07:51:59.943Z,12.90
2022-10-29T07:54:26.505Z,13.00
2022-10-29T07:56:53.068Z,13.10
2022-10-29T07:59:19.608Z,13.20
2022-10-29T08:01:46.644Z,13.30
2022-10-29T08:04:13.216Z,13.40
2022-10-29T08:06:44.578Z,13.50
2022-10-29T08:09:11.741Z,13.60
2022-10-29T08:11:40.647Z,13.70
2022-10-29T08:26:00.121Z,14.40
2022-10-29T08:28:31.854Z,14.60
2022-10-29T08:31:08.281Z,14.70
2022-10-29T08:33:35.586Z,14.90
2022-10-29T08:36:04.468Z,15.10
2022-10-29T08:38:35.505Z,15.40
2022-10-29T08:41:11.333Z,15.70
2022-10-29T08:43:49.963Z,15.90
2022-10-29T08:46:20.184Z,16.10
2022-10-29T08:48:53.716Z,16.20
2022-10-29T08:51:31.014Z,16.40
2022-10-29T08:54:25.427Z,16.40
2022-10-29T08:56:54.867Z,16.50
2022-10-29T08:59:23.108Z,16.40
2022-10-29T09:01:53.193Z,16.40
2022-10-29T09:04:23.050Z,16.40
2022-10-29T09:07:19.510Z,16.30
2022-10-29T09:09:45.910Z,16.30
2022-10-29T09:12:29.571Z,16.20
2022-10-29T09:15:11.084Z,16.20
2022-10-29T09:17:47.183Z,16.20
2022-10-29T09:23:20.437Z,16.20
2022-10-29T09:25:59.518Z,16.20
2022-10-29T09:28:36.890Z,16.20
2022-10-29T09:31:12.793Z,16.30
2022-10-29T09:33:43.600Z,16.20
2022-10-29T09:36:16.545Z,16.20
2022-10-29T09:38:58.563Z,16.30
2022-10-29T09:41:26.574Z,16.30
2022-10-29T09:44:03.556Z,16.50
2022-10-29T09:46:29.964Z,16.80
2022-10-29T09:49:17.464Z,17.10
2022-10-29T09:51:59.572Z,17.50
2022-10-29T09:54:32.101Z,17.80
2022-10-29T09:57:06.631Z,18.20
2022-10-29T09:59:41.337Z,18.40
2022-10-29T10:02:24.629Z,18.60
2022-10-29T10:04:52.602Z,18.80
2022-10-29T10:07:21.595Z,19.00
2022-10-29T10:10:04.681Z,19.20
2022-10-29T10:12:36.850Z,19.50
2022-10-29T10:15:04.453Z,19.70
2022-10-29T10:17:49.960Z,19.90
2022-10-29T10:20:28.161Z,20.20
2022-10-29T10:26:02.376Z,20.50
2022-10-29T10:28:35.600Z,20.70
2022-10-29T10:31:05.713Z,20.90
2022-10-29T10:33:33.185Z,21.10
2022-10-29T10:36:00.763Z,21.30
2022-10-29T10:38:39.662Z,21.40
2022-10-29T10:41:07.094Z,21.60
2022-10-29T10:43:41.904Z,21.60
2022-10-29T10:46:23.230Z,21.70
2022-10-29T10:49:04.554Z,21.80
2022-10-29T10:51:32.672Z,22.00
2022-10-29T10:54:00.465Z,22.10
2022-10-29T10:56:26.999Z,22.30
2022-10-29T10:59:00.130Z,22.50
2022-10-29T11:07:25.508Z,23.20
2022-10-29T11:09:53.611Z,23.40
2022-10-29T11:12:38.103Z,23.50
2022-10-29T11:15:31.492Z,23.50
2022-10-29T11:18:25.774Z,23.70
2022-10-29T11:21:10.570Z,23.80
2022-10-29T11:23:44.571Z,24.00
2022-10-29T11:26:28.539Z,24.10
2022-10-29T11:29:19.679Z,24.10
2022-10-29T11:32:05.804Z,24.10
2022-10-29T11:34:45.076Z,24.20
2022-10-29T11:37:12.411Z,24.20
2022-10-29T11:48:47.264Z,24.80
2022-10-29T11:51:35.108Z,24.80
2022-10-29T11:54:25.495Z,24.90
2022-10-29T11:56:58.373Z,25.00
2022-10-29T12:00:04.771Z,25.20
2022-10-29T12:02:49.976Z,25.40
2022-10-29T12:05:34.754Z,25.70
2022-10-29T12:08:24.409Z,25.90
2022-10-29T12:10:56.933Z,26.10
2022-10-29T12:13:25.645Z,26.40
2022-10-29T12:15:58.162Z,26.50
2022-10-29T12:18:29.827Z,26.60
2022-10-29T12:21:31.988Z,26.50
2022-10-29T12:24:21.113Z,26.40
2022-10-29T12:26:59.171Z,26.60
2022-10-29T12:29:39.284Z,26.60
2022-10-29T12:32:05.860Z,26.60
2022-10-29T12:34:43.909Z,26.60
2022-10-29T12:37:22.426Z,26.70
2022-10-29T12:39:57.019Z,26.70
2022-10-29T12:42:26.089Z,26.60
2022-10-29T12:45:05.645Z,26.70
2022-10-29T12:47:37.637Z,26.80
2022-10-29T12:50:07.930Z,26.70
2022-10-29T12:52:45.563Z,26.60
2022-10-29T12:55:12.896Z,26.60
2022-10-29T12:57:40.423Z,26.50
2022-10-29T13:00:26.794Z,26.50
2022-10-29T13:02:54.465Z,26.40
2022-10-29T13:05:38.276Z,26.40
2022-10-29T13:08:04.939Z,26.30
2022-10-29T13:10:36.143Z,26.20
2022-10-29T13:13:15.604Z,26.20
2022-10-29T13:16:04.828Z,26.10
2022-10-29T13:18:58.281Z,26.10
2022-10-29T13:24:21.526Z,26.20
2022-10-29T13:26:58.874Z,26.30
2022-10-29T13:30:00.004Z,26.30
2022-10-29T13:32:36.696Z,26.40
2022-10-29T13:35:24.864Z,26.50
2022-10-29T13:38:15.491Z,26.60
2022-10-29T13:40:58.654Z,26.70
2022-10-29T13:43:26.563Z,26.80
2022-10-29T13:46:05.585Z,26.90
2022-10-29T13:48:34.860Z,26.90
2022-10-29T13:51:07.264Z,26.90
2022-10-29T13:53:37.491Z,27.00
2022-10-29T13:56:08.217Z,27.00
2022-10-29T13:58:38.537Z,27.00
2022-10-29T14:01:07.779Z,27.10
2022-10-29T14:03:43.744Z,27.10
2022-10-29T14:06:15.250Z,27.10
2022-10-29T14:09:09.631Z,27.00
2022-10-29T14:11:41.497Z,26.90
2022-10-29T14:14:35.860Z,26.70
2022-10-29T14:17:09.886Z,26.50
2022-10-29T14:19:42.093Z,26.40
2022-10-29T14:22:21.211Z,26.20
2022-10-29T14:24:49.139Z,26.10
2022-10-29T14:27:15.873Z,26.00
2022-10-29T14:29:42.664Z,25.90
2022-10-29T14:32:20.835Z,25.80
2022-10-29T14:34:48.458Z,25.60
2022-10-29T14:37:18.513Z,25.40
2022-10-29T14:39:58.469Z,25.30
2022-10-29T14:42:25.979Z,25.10
2022-10-29T14:44:56.077Z,24.80
2022-10-29T14:47:33.408Z,24.70
2022-10-29T14:50:02.473Z,24.60
2022-10-29T14:52:38.411Z,24.40
2022-10-29T14:55:06.476Z,24.30
2022-10-29T14:57:40.267Z,24.20
2022-10-29T15:00:20.925Z,24.20
2022-10-29T15:02:49.093Z,24.10
2022-10-29T15:05:22.412Z,24.00
2022-10-29T15:07:49.340Z,23.80
2022-10-29T15:10:15.766Z,23.70
2022-10-29T15:12:42.414Z,23.70
2022-10-29T15:15:09.313Z,23.60
2022-10-29T15:17:39.518Z,23.50
2022-10-29T15:20:06.469Z,23.30
2022-10-29T15:22:39.830Z,23.20
2022-10-29T15:25:07.227Z,23.20
2022-10-29T15:27:35.300Z,23.10
2022-10-29T15:30:02.239Z,23.00
2022-10-29T15:32:31.424Z,23.00
2022-10-29T15:34:58.946Z,22.90
2022-10-29T15:37:39.530Z,22.80
2022-10-29T15:40:16.318Z,22.70
2022-10-29T15:42:50.724Z,22.50
2022-10-29T15:45:21.659Z,22.40
2022-10-29T15:47:55.614Z,22.20
2022-10-29T15:50:28.596Z,22.10
2022-10-29T15:52:57.141Z,22.00
2022-10-29T15:55:28.105Z,21.90
2022-10-29T15:58:05.267Z,21.80
2022-10-29T16:00:32.277Z,21.80
2022-10-29T16:03:23.012Z,21.70
2022-10-29T16:14:40.617Z,21.10
2022-10-29T16:17:13.365Z,20.90
2022-10-29T16:19:40.973Z,20.80
2022-10-29T16:22:13.988Z,20.60
2022-10-29T16:24:40.800Z,20.50
2022-10-29T16:27:15.273Z,20.40
2022-10-29T16:29:54.842Z,20.30
2022-10-29T16:32:22.742Z,20.20
2022-10-29T16:34:49.332Z,20.20
2022-10-29T16:37:17.284Z,20.20
2022-10-29T16:39:49.446Z,20.20
2022-10-29T16:42:30.987Z,20.20
2022-10-29T16:45:00.513Z,20.10
2022-10-29T16:47:27.157Z,20.10
2022-10-29T16:49:53.637Z,20.10
2022-10-29T16:52:24.099Z,20.10
2022-10-29T16:54:53.373Z,20.10
2022-10-29T16:57:20.012Z,20.00
2022-10-29T16:59:46.672Z,20.00
2022-10-29T17:02:13.152Z,20.00
2022-10-29T17:04:42.462Z,20.00
2022-10-29T17:10:23.483Z,20.10
2022-10-29T17:12:50.320Z,20.20
2022-10-29T17:15:20.316Z,20.10
2022-10-29T17:17:46.969Z,20.10
2022-10-29T17:20:13.724Z,20.00
2022-10-29T17:22:40.493Z,20.00
2022-10-29T17:25:33.206Z,20.00
2022-10-29T17:28:00.175Z,19.90
2022-10-29T17:30:26.822Z,19.80
2022-10-29T17:33:03.474Z,19.70
2022-10-29T17:35:31.132Z,19.70
2022-10-29T17:37:57.693Z,19.70
2022-10-29T17:40:24.379Z,19.60
2022-10-29T17:42:50.873Z,19.50
2022-10-29T17:45:19.786Z,19.50
2022-10-29T17:47:46.325Z,19.40
2022-10-29T17:50:19.285Z,19.40
2022-10-29T17:52:45.809Z,19.40
2022-10-29T17:55:14.920Z,19.30
2022-10-29T17:57:41.519Z,19.30
2022-10-29T18:00:08.628Z,19.20
2022-10-29T18:02:38.151Z,19.10
2022-10-29T18:05:09.079Z,19.10
2022-10-29T18:07:35.839Z,19.00
2022-10-29T18:10:03.143Z,18.90
2022-10-29T18:12:29.870Z,18.80
2022-10-29T18:14:56.395Z,18.70
2022-10-29T18:17:24.630Z,18.60
2022-10-29T18:19:53.533Z,18.50
2022-10-29T18:22:22.573Z,18.50
2022-10-29T18:24:49.130Z,18.30
2022-10-29T18:32:58.952Z,18.00
2022-10-29T18:35:26.998Z,18.00
2022-10-29T18:37:58.978Z,17.90
2022-10-29T18:40:25.707Z,17.90
2022-10-29T18:42:52.398Z,17.80
2022-10-29T18:45:21.472Z,17.80
2022-10-29T18:47:48.116Z,17.70
2022-10-29T18:50:14.710Z,17.70
2022-10-29T18:52:46.835Z,17.60
2022-10-29T18:55:16.091Z,17.50
2022-10-29T18:57:47.231Z,17.50
2022-10-29T19:00:19.157Z,17.40
2022-10-29T19:02:57.884Z,17.40
2022-10-29T19:08:20.518Z,17.40
2022-10-29T19:10:47.015Z,17.30
2022-10-29T19:13:16.988Z,17.20
2022-10-29T19:15:46.479Z,17.20
2022-10-29T19:18:16.848Z,17.20
2022-10-29T19:20:46.601Z,17.10
2022-10-29T19:23:16.592Z,17.10
2022-10-29T19:25:48.546Z,17.20
2022-10-29T19:28:40.578Z,17.20
2022-10-29T19:31:11.608Z,17.30
2022-10-29T19:33:39.447Z,17.20
2022-10-29T19:36:09.034Z,17.20
2022-10-29T19:38:37.725Z,17.20
2022-10-29T19:41:04.349Z,17.10
2022-10-29T19:43:31.152Z,17.10
2022-10-29T19:46:00.166Z,17.10
2022-10-29T19:48:27.033Z,17.10
2022-10-29T19:50:55.585Z,17.10
2022-10-29T19:53:25.253Z,17.10
2022-10-29T19:55:56.254Z,17.00
2022-10-29T19:58:26.088Z,16.90
2022-10-29T20:00:53.041Z,16.90
2022-10-29T20:03:31.763Z,16.90
2022-10-29T20:10:58.268Z,16.80
2022-10-29T20:13:28.621Z,16.60
2022-10-29T20:15:55.754Z,16.50
2022-10-29T20:18:29.433Z,16.40
2022-10-29T20:20:56.722Z,16.30
2022-10-29T20:23:26.783Z,16.30
2022-10-29T20:25:55.965Z,16.10
2022-10-29T20:28:26.012Z,16.00
2022-10-29T20:31:17.012Z,16.00
2022-10-29T20:33:58.291Z,15.90
2022-10-29T20:36:30.679Z,15.90
2022-10-29T20:38:57.830Z,15.90
2022-10-29T20:41:27.783Z,15.80
2022-10-29T20:46:50.279Z,15.70
2022-10-29T20:49:19.775Z,15.60
2022-10-29T20:51:46.420Z,15.60
2022-10-29T20:54:16.561Z,15.60
2022-10-29T20:56:44.888Z,15.50
2022-10-29T20:59:12.378Z,15.50
2022-10-29T21:01:39.233Z,15.40
2022-10-29T21:04:08.524Z,15.40
2022-10-29T21:06:40.068Z,15.40
2022-10-29T21:09:09.090Z,15.30
2022-10-29T21:11:40.566Z,15.30
2022-10-29T21:14:11.033Z,15.30
2022-10-29T21:16:39.820Z,15.20
2022-10-29T21:19:06.534Z,15.20
2022-10-29T21:21:35.886Z,15.20
2022-10-29T21:24:06.262Z,15.10
2022-10-29T21:26:36.413Z,15.10
2022-10-29T21:29:05.628Z,15.10
2022-10-29T21:31:32.280Z,15.10
2022-10-29T21:33:58.924Z,15.10
2022-10-29T21:36:27.266Z,15.10
2022-10-29T21:38:54.266Z,15.00
2022-10-29T21:41:24.690Z,15.00
2022-10-29T21:43:51.529Z,15.00
2022-10-29T21:46:18.064Z,14.90
2022-10-29T21:48:47.792Z,14.90
2022-10-29T21:51:17.698Z,14.90
2022-10-29T21:53:45.411Z,14.80
2022-10-29T21:56:15.080Z,14.80
2022-10-29T21:58:42.115Z,14.80
2022-10-29T22:01:09.945Z,14.80
2022-10-29T22:03:39.846Z,14.80
2022-10-29T22:06:11.231Z,14.80
2022-10-29T22:08:38.294Z,14.80
2022-10-29T22:11:10.851Z,14.70
2022-10-29T22:13:37.934Z,14.60
2022-10-29T22:16:05.633Z,14.60
2022-10-29T22:18:33.184Z,14.50
2022-10-29T22:21:06.309Z,14.50
2022-10-29T22:23:37.394Z,14.40
2022-10-29T22:26:04.286Z,14.30
2022-10-29T22:28:31.130Z,14.30
2022-10-29T22:31:02.475Z,14.30
2022-10-29T22:33:30.332Z,14.30
2022-10-29T22:36:13.830Z,14.30
2022-10-29T22:38:40.975Z,14.30
2022-10-29T22:41:15.219Z,14.30
2022-10-29T22:43:42.582Z,14.30
2022-10-29T22:46:10.970Z,14.40
2022-10-29T22:48:38.600Z,14.40
2022-10-29T22:51:08.975Z,14.40
2022-10-29T22:53:39.756Z,14.40
2022-10-29T22:56:33.916Z,14.40
2022-10-29T22:59:08.942Z,14.30
2022-10-29T23:07:39.455Z,14.10
2022-10-29T23:10:08.823Z,14.00
2022-10-29T23:12:38.093Z,14.00
2022-10-29T23:15:07.648Z,13.90
2022-10-29T23:17:34.490Z,13.90
2022-10-29T23:20:01.274Z,13.90
2022-10-29T23:22:27.880Z,13.80
2022-10-29T23:24:54.493Z,13.80
2022-10-29T23:27:24.871Z,13.90
2022-10-29T23:29:51.974Z,13.90
2022-10-29T23:32:24.799Z,13.80
2022-10-29T23:34:51.543Z,13.80
2022-10-29T23:37:18.202Z,13.70
2022-10-29T23:39:44.927Z,13.80
2022-10-29T23:42:13.861Z,13.80
2022-10-29T23:44:40.604Z,13.80
2022-10-29T23:47:07.164Z,13.80
2022-10-29T23:49:35.913Z,13.80
2022-10-29T23:52:03.188Z,13.80
2022-10-29T23:54:29.874Z,13.80
2022-10-29T23:56:56.439Z,13.80
2022-10-29T23:59:25.442Z,13.80
